createdAt,value
2022-12-31T00:03:53.490Z,12.9
2022-12-31T00:13:53.761Z,13
2022-12-31T00:23:53.997Z,13
2022-12-31T00:33:54.884Z,13
2022-12-31T00:43:55.315Z,12.6
2022-12-31T01:03:55.833Z,12.3
2022-12-31T01:13:56.331Z,12.2
2022-12-31T01:23:57.137Z,12.1
2022-12-31T01:33:58.089Z,12.2
2022-12-31T01:43:59.100Z,12.3
2022-12-31T01:53:59.921Z,12.5
2022-12-31T02:04:00.135Z,12.6
2022-12-31T02:24:01.852Z,13.2
2022-12-31T02:34:02.528Z,13.6
2022-12-31T02:44:02.836Z,14.1
2022-12-31T02:54:03.744Z,14.3
2022-12-31T03:04:04.432Z,14.5
2022-12-31T03:14:04.604Z,14.7
2022-12-31T03:24:04.787Z,14.7
2022-12-31T03:34:05.165Z,14.1
2022-12-31T03:44:05.809Z,13.9
2022-12-31T03:54:06.233Z,14.2
2022-12-31T04:04:06.994Z,14.6
2022-12-31T04:14:07.306Z,14.8
2022-12-31T04:24:07.872Z,15
2022-12-31T04:34:08.309Z,15.1
2022-12-31T04:44:09.082Z,14.5
2022-12-31T04:54:09.363Z,14.9
2022-12-31T05:04:10.015Z,15.3
2022-12-31T05:14:10.302Z,15.5
2022-12-31T05:24:10.425Z,15.6
2022-12-31T05:34:10.770Z,15.7
2022-12-31T05:54:11.867Z,16.1
2022-12-31T06:14:12.368Z,16.2
2022-12-31T06:34:13.841Z,16.1
2022-12-31T06:44:14.504Z,16.1
2022-12-31T06:54:14.846Z,16.2
2022-12-31T07:04:14.820Z,16.2
2022-12-31T07:14:14.983Z,16.3
2022-12-31T07:54:18.742Z,16.4
2022-12-31T08:14:20.074Z,16.5
2022-12-31T08:24:20.621Z,16.6
2022-12-31T08:34:21.492Z,16.7
2022-12-31T08:44:21.632Z,16.7
2022-12-31T08:54:22.437Z,16.8
2022-12-31T09:04:23.153Z,16.8
2022-12-31T09:14:23.513Z,16.8
2022-12-31T09:24:23.760Z,16.9
2022-12-31T09:34:24.235Z,16.8
2022-12-31T09:44:24.577Z,16.8
2022-12-31T09:54:24.977Z,16.8
2022-12-31T10:04:25.825Z,16.8
2022-12-31T10:14:26.070Z,16.8
2022-12-31T10:15:05.704Z,16.8
2022-12-31T10:24:32.215Z,16.8
2022-12-31T10:34:32.749Z,16.9
2022-12-31T10:44:33.358Z,17
2022-12-31T10:54:33.490Z,17.1
2022-12-31T11:04:33.598Z,17.1
2022-12-31T11:14:34.533Z,17.2
2022-12-31T11:24:34.863Z,17.3
2022-12-31T11:34:35.446Z,17.3
2022-12-31T11:44:35.573Z,17.2
2022-12-31T11:54:36.288Z,17.1
2022-12-31T12:04:36.542Z,17.1
2022-12-31T12:14:36.827Z,17.1
2022-12-31T12:24:37.129Z,17
2022-12-31T12:34:37.911Z,16.6
2022-12-31T12:44:38.603Z,16.2
2022-12-31T12:54:39.248Z,15.9
2022-12-31T13:04:39.788Z,15.8
2022-12-31T13:14:40.510Z,15.8
2022-12-31T13:24:40.614Z,16
2022-12-31T13:34:41.479Z,16.4
2022-12-31T13:44:41.600Z,16.4
2022-12-31T13:54:42.352Z,16.4
2022-12-31T14:04:43.364Z,16.5
2022-12-31T14:14:43.840Z,16.6
2022-12-31T14:24:44.626Z,16.4
2022-12-31T14:34:45.011Z,16.5
2022-12-31T14:44:45.408Z,16.4
2022-12-31T14:54:46.477Z,16.3
2022-12-31T15:04:46.938Z,16
2022-12-31T15:14:47.232Z,15.8
2022-12-31T15:24:47.509Z,15.7
2022-12-31T15:34:48.437Z,15.6
2022-12-31T15:44:48.605Z,15.6
2022-12-31T15:54:49.144Z,15.9
2022-12-31T16:04:49.561Z,16
2022-12-31T16:25:19.835Z,16.2
2022-12-31T16:34:50.590Z,16.3
2022-12-31T16:44:51.480Z,16.3
2022-12-31T16:54:51.715Z,16.2
2022-12-31T17:04:55.874Z,16.2
2022-12-31T17:14:52.417Z,16.2
2022-12-31T17:24:52.885Z,15.9
2022-12-31T17:34:53.613Z,15.9
2022-12-31T17:44:54.171Z,15.9
2022-12-31T17:54:54.608Z,16
2022-12-31T18:04:54.916Z,16
2022-12-31T18:14:55.319Z,15.9
2022-12-31T18:24:55.681Z,15.9
2022-12-31T18:44:57.039Z,15.7
2022-12-31T18:54:57.727Z,15.8
2022-12-31T19:04:58.159Z,15.9
2022-12-31T19:14:58.831Z,15.9
2022-12-31T19:24:59.839Z,15.9
2022-12-31T19:35:00.211Z,16
2022-12-31T19:45:00.615Z,16.1
2022-12-31T20:05:01.146Z,16
2022-12-31T20:15:01.821Z,16
2022-12-31T20:25:02.533Z,16
2022-12-31T20:35:03.072Z,16.2
2022-12-31T20:45:03.836Z,16.1
2022-12-31T20:55:04.064Z,16.3
2022-12-31T21:05:05.156Z,16.3
2022-12-31T21:15:05.618Z,16.3
2022-12-31T21:25:06.179Z,16.3
2022-12-31T21:35:40.667Z,16.4
2022-12-31T22:05:14.948Z,16.3
2022-12-31T22:15:14.142Z,16.3
2022-12-31T23:15:10.064Z,16.5
2022-12-31T23:25:10.420Z,16.6
2022-12-31T23:35:10.552Z,16.6
2022-12-31T23:45:11.318Z,16.5
2022-12-31T23:55:11.454Z,16.8
